createdAt,value
2023-04-27T00:00:04.622Z,0.00
2023-04-27T00:01:04.568Z,0.00
2023-04-27T00:02:04.588Z,0.00
2023-04-27T00:03:04.878Z,0.00
2023-04-27T00:04:04.698Z,0.00
2023-04-27T00:05:04.678Z,0.00
2023-04-27T00:06:04.532Z,0.00
2023-04-27T00:07:04.530Z,0.00
2023-04-27T00:08:07.509Z,0.00
2023-04-27T00:09:07.463Z,0.00
2023-04-27T00:10:04.452Z,0.00
2023-04-27T00:11:04.484Z,0.00
2023-04-27T00:12:04.426Z,0.00
2023-04-27T00:13:04.442Z,0.00
2023-04-27T00:14:04.405Z,0.00
2023-04-27T00:15:04.425Z,0.00
2023-04-27T00:16:04.410Z,0.00
2023-04-27T00:17:04.360Z,0.00
2023-04-27T00:18:04.438Z,0.00
2023-04-27T00:19:04.345Z,0.00
2023-04-27T00:20:04.369Z,0.00
2023-04-27T00:21:04.325Z,0.00
2023-04-27T00:22:04.290Z,0.00
2023-04-27T00:23:04.273Z,0.00
2023-04-27T00:24:04.277Z,0.00
2023-04-27T00:25:04.299Z,0.00
2023-04-27T00:26:04.256Z,0.00
2023-04-27T00:27:04.379Z,0.00
2023-04-27T00:28:07.204Z,0.00
2023-04-27T00:29:07.195Z,0.00
2023-04-27T00:30:04.185Z,0.00
2023-04-27T00:31:04.182Z,0.00
2023-04-27T00:32:04.180Z,0.00
2023-04-27T00:33:04.308Z,0.00
2023-04-27T00:34:04.131Z,0.00
2023-04-27T00:35:04.109Z,0.00
2023-04-27T00:36:04.111Z,0.00
2023-04-27T00:37:04.081Z,0.00
2023-04-27T00:38:04.097Z,0.00
2023-04-27T00:39:04.116Z,0.00
2023-04-27T00:40:04.035Z,0.00
2023-04-27T00:41:04.029Z,0.00
2023-04-27T00:42:04.043Z,0.00
2023-04-27T00:43:04.019Z,0.00
2023-04-27T00:44:04.042Z,0.00
2023-04-27T00:45:04.057Z,0.00
2023-04-27T00:46:04.096Z,0.00
2023-04-27T00:47:03.941Z,0.00
2023-04-27T00:48:06.980Z,0.00
2023-04-27T00:49:06.920Z,0.00
2023-04-27T00:50:03.949Z,0.00
2023-04-27T00:51:03.892Z,0.00
2023-04-27T00:52:03.893Z,0.00
2023-04-27T00:53:03.857Z,0.00
2023-04-27T00:54:03.850Z,0.00
2023-04-27T00:55:03.829Z,0.00
2023-04-27T00:56:03.863Z,0.00
2023-04-27T00:57:03.799Z,0.00
2023-04-27T00:58:03.858Z,0.00
2023-04-27T00:59:03.792Z,0.00
2023-04-27T01:00:03.767Z,0.00
2023-04-27T01:01:03.838Z,0.00
2023-04-27T01:02:03.768Z,0.00
2023-04-27T01:03:03.855Z,0.00
2023-04-27T01:04:03.843Z,0.00
2023-04-27T01:05:03.701Z,0.00
2023-04-27T01:06:03.690Z,0.00
2023-04-27T01:07:03.683Z,0.00
2023-04-27T01:08:06.677Z,0.00
2023-04-27T01:09:06.652Z,0.00
2023-04-27T01:10:03.671Z,0.00
2023-04-27T01:11:03.626Z,0.00
2023-04-27T01:12:03.612Z,0.00
2023-04-27T01:13:03.635Z,0.00
2023-04-27T01:14:03.567Z,0.00
2023-04-27T01:15:03.562Z,0.00
2023-04-27T01:16:03.572Z,0.00
2023-04-27T01:17:03.635Z,0.00
2023-04-27T01:18:03.565Z,0.00
2023-04-27T01:19:03.578Z,0.00
2023-04-27T01:20:03.509Z,0.00
2023-04-27T01:21:03.475Z,0.00
2023-04-27T01:22:03.454Z,0.00
2023-04-27T01:23:03.451Z,0.00
2023-04-27T01:24:03.504Z,0.00
2023-04-27T01:25:03.440Z,0.00
2023-04-27T01:26:03.404Z,0.00
2023-04-27T01:27:03.395Z,0.00
2023-04-27T01:28:06.379Z,0.00
2023-04-27T01:29:06.412Z,0.00
2023-04-27T01:30:03.369Z,0.00
2023-04-27T01:31:03.395Z,0.00
2023-04-27T01:32:03.325Z,0.00
2023-04-27T01:33:03.365Z,0.00
2023-04-27T01:34:03.326Z,0.00
2023-04-27T01:35:03.292Z,0.00
2023-04-27T01:36:03.296Z,0.00
2023-04-27T01:37:03.268Z,0.00
2023-04-27T01:38:03.238Z,0.00
2023-04-27T01:39:03.281Z,0.00
2023-04-27T01:40:03.210Z,0.00
2023-04-27T01:41:03.249Z,0.00
2023-04-27T01:42:03.210Z,0.00
2023-04-27T01:43:03.179Z,0.00
2023-04-27T01:44:03.195Z,0.00
2023-04-27T01:45:03.181Z,0.00
2023-04-27T01:46:03.175Z,0.00
2023-04-27T01:47:03.122Z,0.00
2023-04-27T01:48:06.134Z,0.00
2023-04-27T01:49:06.131Z,0.00
2023-04-27T01:50:03.093Z,0.00
2023-04-27T01:51:03.080Z,0.00
2023-04-27T01:52:03.048Z,0.00
2023-04-27T01:53:03.043Z,0.00
2023-04-27T01:54:03.055Z,0.00
2023-04-27T01:55:03.020Z,0.00
2023-04-27T01:56:03.076Z,0.00
2023-04-27T01:57:02.995Z,0.00
2023-04-27T01:58:02.971Z,0.00
2023-04-27T01:59:02.975Z,0.00
2023-04-27T02:00:02.954Z,0.00
2023-04-27T02:01:02.941Z,0.00
2023-04-27T02:02:03.113Z,0.00
2023-04-27T02:03:03.044Z,0.00
2023-04-27T02:04:03.033Z,0.00
2023-04-27T02:05:02.884Z,0.00
2023-04-27T02:06:02.896Z,0.00
2023-04-27T02:07:02.862Z,0.00
2023-04-27T02:08:05.862Z,0.00
2023-04-27T02:09:05.885Z,0.00
2023-04-27T02:10:02.807Z,0.00
2023-04-27T02:11:02.815Z,0.00
2023-04-27T02:12:02.791Z,0.00
2023-04-27T02:13:02.766Z,0.00
2023-04-27T02:14:02.777Z,0.00
2023-04-27T02:15:02.777Z,0.00
2023-04-27T02:16:02.762Z,0.00
2023-04-27T02:17:02.712Z,0.00
2023-04-27T02:18:02.754Z,0.00
2023-04-27T02:19:02.684Z,0.00
2023-04-27T02:20:02.714Z,0.00
2023-04-27T02:21:02.659Z,0.00
2023-04-27T02:22:02.657Z,0.00
2023-04-27T02:23:02.647Z,0.00
2023-04-27T02:24:02.632Z,0.00
2023-04-27T02:25:02.612Z,0.00
2023-04-27T02:26:02.660Z,0.00
2023-04-27T02:27:02.577Z,0.00
2023-04-27T02:28:05.633Z,0.00
2023-04-27T02:29:05.544Z,0.00
2023-04-27T02:30:02.530Z,0.00
2023-04-27T02:31:02.535Z,0.00
2023-04-27T02:32:02.631Z,0.00
2023-04-27T02:33:02.510Z,0.00
2023-04-27T02:34:02.542Z,0.00
2023-04-27T02:35:02.462Z,0.00
2023-04-27T02:36:02.453Z,0.00
2023-04-27T02:37:02.433Z,0.00
2023-04-27T02:38:02.436Z,0.00
2023-04-27T02:39:02.416Z,0.00
2023-04-27T02:40:02.435Z,0.00
2023-04-27T02:41:02.397Z,0.00
2023-04-27T02:42:02.373Z,0.00
2023-04-27T02:43:02.364Z,0.00
2023-04-27T02:44:02.374Z,0.00
2023-04-27T02:45:02.365Z,0.00
2023-04-27T02:46:02.316Z,0.00
2023-04-27T02:47:02.427Z,0.00
2023-04-27T02:48:05.323Z,0.00
2023-04-27T02:49:05.300Z,0.00
2023-04-27T02:50:02.256Z,0.00
2023-04-27T02:51:02.251Z,0.00
2023-04-27T02:52:02.235Z,0.00
2023-04-27T02:53:02.261Z,0.00
2023-04-27T02:54:02.220Z,0.00
2023-04-27T02:55:02.206Z,0.00
2023-04-27T02:56:02.234Z,0.00
2023-04-27T02:57:02.177Z,0.00
2023-04-27T02:58:02.149Z,0.00
2023-04-27T02:59:02.134Z,0.00
2023-04-27T03:00:03.712Z,0.00
2023-04-27T03:01:02.126Z,0.00
2023-04-27T03:02:02.142Z,0.00
2023-04-27T03:03:02.240Z,0.00
2023-04-27T03:04:02.365Z,0.00
2023-04-27T03:05:02.087Z,0.00
2023-04-27T03:06:02.054Z,0.00
2023-04-27T03:07:02.069Z,0.00
2023-04-27T03:08:05.046Z,0.00
2023-04-27T03:09:05.002Z,0.00
2023-04-27T03:10:01.985Z,0.00
2023-04-27T03:11:02.003Z,0.00
2023-04-27T03:12:01.964Z,0.00
2023-04-27T03:13:02.001Z,0.00
2023-04-27T03:14:01.932Z,0.00
2023-04-27T03:15:01.935Z,0.00
2023-04-27T03:16:01.944Z,0.00
2023-04-27T03:17:01.903Z,0.00
2023-04-27T03:18:01.966Z,0.00
2023-04-27T03:19:01.881Z,0.00
2023-04-27T03:20:01.877Z,0.00
2023-04-27T03:21:01.863Z,0.00
2023-04-27T03:22:01.862Z,0.00
2023-04-27T03:23:01.810Z,0.00
2023-04-27T03:24:01.804Z,0.00
2023-04-27T03:25:01.783Z,0.00
2023-04-27T03:26:01.805Z,0.00
2023-04-27T03:27:01.795Z,0.00
2023-04-27T03:28:04.733Z,0.00
2023-04-27T03:29:04.728Z,0.00
2023-04-27T03:30:01.748Z,0.00
2023-04-27T03:31:01.721Z,0.00
2023-04-27T03:32:01.711Z,0.00
2023-04-27T03:33:01.700Z,0.00
2023-04-27T03:34:01.664Z,0.00
2023-04-27T03:35:01.696Z,0.00
2023-04-27T03:36:01.629Z,0.00
2023-04-27T03:37:01.623Z,0.00
2023-04-27T03:38:01.607Z,0.00
2023-04-27T03:39:01.610Z,0.00
2023-04-27T03:40:01.604Z,0.00
2023-04-27T03:41:01.558Z,0.00
2023-04-27T03:42:01.565Z,0.00
2023-04-27T03:43:01.544Z,0.00
2023-04-27T03:44:01.530Z,0.00
2023-04-27T03:45:01.581Z,0.00
2023-04-27T03:46:01.561Z,0.00
2023-04-27T03:47:01.476Z,0.00
2023-04-27T03:48:04.493Z,0.00
2023-04-27T03:49:04.483Z,0.00
2023-04-27T03:50:01.465Z,5.62
2023-04-27T03:51:01.456Z,5.62
2023-04-27T03:52:01.410Z,5.62
2023-04-27T03:53:01.398Z,5.62
2023-04-27T03:54:01.396Z,5.62
2023-04-27T03:55:01.404Z,5.62
2023-04-27T03:56:01.353Z,5.62
2023-04-27T03:57:01.388Z,5.62
2023-04-27T03:58:01.336Z,11.25
2023-04-27T03:59:01.323Z,11.25
2023-04-27T04:00:01.298Z,11.25
2023-04-27T04:01:01.307Z,11.25
2023-04-27T04:02:01.694Z,11.25
2023-04-27T04:03:01.443Z,11.25
2023-04-27T04:04:01.412Z,16.88
2023-04-27T04:05:01.303Z,16.88
2023-04-27T04:06:01.255Z,16.88
2023-04-27T04:07:01.242Z,16.88
2023-04-27T04:08:04.234Z,22.50
2023-04-27T04:09:04.178Z,22.50
2023-04-27T04:10:01.177Z,22.50
2023-04-27T04:11:01.155Z,22.50
2023-04-27T04:12:01.183Z,28.12
2023-04-27T04:13:01.127Z,28.12
2023-04-27T04:14:01.128Z,28.12
2023-04-27T04:15:01.138Z,28.12
2023-04-27T04:16:01.198Z,33.75
2023-04-27T04:17:01.147Z,33.75
2023-04-27T04:18:01.136Z,33.75
2023-04-27T04:19:01.065Z,33.75
2023-04-27T04:20:01.029Z,39.38
2023-04-27T04:21:01.024Z,39.38
2023-04-27T04:22:01.000Z,39.38
2023-04-27T04:23:01.010Z,39.38
2023-04-27T04:24:00.978Z,45.00
2023-04-27T04:25:00.976Z,45.00
2023-04-27T04:26:00.947Z,45.00
2023-04-27T04:27:00.934Z,45.00
2023-04-27T04:28:03.983Z,45.00
2023-04-27T04:29:03.938Z,45.00
2023-04-27T04:30:00.902Z,50.62
2023-04-27T04:31:00.934Z,50.62
2023-04-27T04:32:00.871Z,50.62
2023-04-27T04:33:00.906Z,56.25
2023-04-27T04:34:00.863Z,95.62
2023-04-27T04:35:00.814Z,151.88
2023-04-27T04:36:00.822Z,140.62
2023-04-27T04:37:00.804Z,168.75
2023-04-27T04:38:00.794Z,174.38
2023-04-27T04:39:00.804Z,174.38
2023-04-27T04:40:00.785Z,151.88
2023-04-27T04:41:01.264Z,140.62
2023-04-27T04:42:00.818Z,56.25
2023-04-27T04:43:00.722Z,50.62
2023-04-27T04:44:00.762Z,50.62
2023-04-27T04:45:00.695Z,50.62
2023-04-27T04:46:00.686Z,50.62
2023-04-27T04:47:00.722Z,67.50
2023-04-27T04:48:03.676Z,50.62
2023-04-27T04:49:03.685Z,50.62
2023-04-27T04:50:00.625Z,45.00
2023-04-27T04:51:00.602Z,45.00
2023-04-27T04:52:00.599Z,45.00
2023-04-27T04:53:00.661Z,45.00
2023-04-27T04:54:01.842Z,39.38
2023-04-27T04:55:00.584Z,39.38
2023-04-27T04:56:00.559Z,33.75
2023-04-27T04:57:00.597Z,33.75
2023-04-27T04:58:00.517Z,28.12
2023-04-27T04:59:00.538Z,28.12
2023-04-27T05:00:00.505Z,22.50
2023-04-27T05:01:00.486Z,22.50
2023-04-27T05:02:00.478Z,22.50
2023-04-27T05:03:00.588Z,22.50
2023-04-27T05:04:00.549Z,22.50
2023-04-27T05:05:00.598Z,28.12
2023-04-27T05:06:00.407Z,28.12
2023-04-27T05:07:00.385Z,28.12
2023-04-27T05:08:03.392Z,28.12
2023-04-27T05:09:03.372Z,28.12
2023-04-27T05:10:00.372Z,22.50
2023-04-27T05:11:00.334Z,22.50
2023-04-27T05:12:00.365Z,16.88
2023-04-27T05:13:00.310Z,16.88
2023-04-27T05:14:00.362Z,16.88
2023-04-27T05:15:00.336Z,22.50
2023-04-27T05:16:00.324Z,22.50
2023-04-27T05:17:00.257Z,22.50
2023-04-27T05:18:00.320Z,28.12
2023-04-27T05:19:00.226Z,39.38
2023-04-27T05:20:00.271Z,61.88
2023-04-27T05:21:00.188Z,67.50
2023-04-27T05:22:00.190Z,67.50
2023-04-27T05:23:00.195Z,67.50
2023-04-27T05:24:00.207Z,67.50
2023-04-27T05:25:00.172Z,67.50
2023-04-27T05:26:00.204Z,73.12
2023-04-27T05:27:02.185Z,78.75
2023-04-27T05:28:03.108Z,78.75
2023-04-27T05:29:03.132Z,84.38
2023-04-27T05:30:00.109Z,84.38
2023-04-27T05:31:00.054Z,90.00
2023-04-27T05:32:00.241Z,95.62
2023-04-27T05:33:00.050Z,95.62
2023-04-27T05:34:00.058Z,95.62
2023-04-27T05:35:00.013Z,101.25
2023-04-27T05:35:59.996Z,106.88
2023-04-27T05:36:59.981Z,106.88
2023-04-27T05:38:00.043Z,106.88
2023-04-27T05:38:59.963Z,112.50
2023-04-27T05:39:59.971Z,112.50
2023-04-27T05:40:59.966Z,118.12
2023-04-27T05:41:59.929Z,123.75
2023-04-27T05:42:59.895Z,123.75
2023-04-27T05:43:59.935Z,129.38
2023-04-27T05:44:59.893Z,135.00
2023-04-27T05:45:59.905Z,135.00
2023-04-27T05:46:59.882Z,140.62
2023-04-27T05:48:02.913Z,146.25
2023-04-27T05:49:02.845Z,151.88
2023-04-27T05:49:59.818Z,157.50
2023-04-27T05:50:59.781Z,157.50
2023-04-27T05:51:59.860Z,157.50
2023-04-27T05:52:59.761Z,163.12
2023-04-27T05:53:59.783Z,163.12
2023-04-27T05:54:59.741Z,163.12
2023-04-27T05:55:59.735Z,163.12
2023-04-27T05:56:59.713Z,168.75
2023-04-27T05:58:07.692Z,168.75
2023-04-27T05:59:02.520Z,168.75
2023-04-27T05:59:59.739Z,163.12
2023-04-27T06:00:59.665Z,163.12
2023-04-27T06:01:59.674Z,163.12
2023-04-27T06:02:59.714Z,163.12
2023-04-27T06:03:59.838Z,157.50
2023-04-27T06:04:59.655Z,202.50
2023-04-27T06:05:59.601Z,219.38
2023-04-27T06:06:59.618Z,309.38
2023-04-27T06:08:02.576Z,320.62
2023-04-27T06:09:02.662Z,371.25
2023-04-27T06:09:59.551Z,365.62
2023-04-27T06:10:59.537Z,360.00
2023-04-27T06:11:59.520Z,348.75
2023-04-27T06:12:59.502Z,343.12
2023-04-27T06:13:59.492Z,337.50
2023-04-27T06:14:59.497Z,309.38
2023-04-27T06:15:59.543Z,315.00
2023-04-27T06:16:59.451Z,303.75
2023-04-27T06:17:59.473Z,292.50
2023-04-27T06:18:59.418Z,275.62
2023-04-27T06:19:59.430Z,270.00
2023-04-27T06:20:59.457Z,264.38
2023-04-27T06:21:59.384Z,247.50
2023-04-27T06:22:59.359Z,236.25
2023-04-27T06:23:59.399Z,225.00
2023-04-27T06:24:59.349Z,213.75
2023-04-27T06:25:59.320Z,208.12
2023-04-27T06:26:59.356Z,202.50
2023-04-27T06:28:02.293Z,191.25
2023-04-27T06:29:02.307Z,185.62
2023-04-27T06:29:59.277Z,174.38
2023-04-27T06:30:59.247Z,168.75
2023-04-27T06:31:59.318Z,157.50
2023-04-27T06:32:59.296Z,157.50
2023-04-27T06:33:59.248Z,151.88
2023-04-27T06:34:59.200Z,151.88
2023-04-27T06:35:59.247Z,151.88
2023-04-27T06:36:59.168Z,151.88
2023-04-27T06:37:59.215Z,151.88
2023-04-27T06:38:59.164Z,151.88
2023-04-27T06:39:59.136Z,151.88
2023-04-27T06:40:59.129Z,151.88
2023-04-27T06:41:59.166Z,151.88
2023-04-27T06:42:59.121Z,151.88
2023-04-27T06:43:59.291Z,151.88
2023-04-27T06:44:59.067Z,151.88
2023-04-27T06:45:59.099Z,157.50
2023-04-27T06:46:59.193Z,157.50
2023-04-27T06:48:02.070Z,157.50
2023-04-27T06:49:02.055Z,157.50
2023-04-27T06:49:58.994Z,157.50
2023-04-27T06:50:58.977Z,157.50
2023-04-27T06:51:58.970Z,157.50
2023-04-27T06:52:58.969Z,157.50
2023-04-27T06:53:58.927Z,157.50
2023-04-27T06:54:58.945Z,157.50
2023-04-27T06:55:58.927Z,157.50
2023-04-27T06:56:58.897Z,163.12
2023-04-27T06:57:58.881Z,163.12
2023-04-27T06:58:58.923Z,163.12
2023-04-27T06:59:58.876Z,163.12
2023-04-27T07:00:58.859Z,163.12
2023-04-27T07:01:59.128Z,163.12
2023-04-27T07:02:58.996Z,163.12
2023-04-27T07:03:58.901Z,163.12
2023-04-27T07:04:58.879Z,163.12
2023-04-27T07:05:58.771Z,163.12
2023-04-27T07:06:58.830Z,163.12
2023-04-27T07:08:05.204Z,163.12
2023-04-27T07:09:06.025Z,163.12
2023-04-27T07:09:59.765Z,163.12
2023-04-27T07:10:58.709Z,163.12
2023-04-27T07:11:58.707Z,163.12
2023-04-27T07:12:58.672Z,163.12
2023-04-27T07:13:58.672Z,168.75
2023-04-27T07:14:58.645Z,168.75
2023-04-27T07:15:58.705Z,168.75
2023-04-27T07:16:58.614Z,168.75
2023-04-27T07:17:58.692Z,168.75
2023-04-27T07:18:58.621Z,174.38
2023-04-27T07:19:58.609Z,174.38
2023-04-27T07:20:58.561Z,174.38
2023-04-27T07:21:58.593Z,180.00
2023-04-27T07:22:58.540Z,180.00
2023-04-27T07:23:58.571Z,180.00
2023-04-27T07:24:58.496Z,180.00
2023-04-27T07:25:58.492Z,180.00
2023-04-27T07:26:58.488Z,180.00
2023-04-27T07:28:01.499Z,180.00
2023-04-27T07:29:02.861Z,180.00
2023-04-27T07:29:58.442Z,185.62
2023-04-27T07:30:58.450Z,185.62
2023-04-27T07:31:58.472Z,180.00
2023-04-27T07:32:58.502Z,180.00
2023-04-27T07:33:58.396Z,180.00
2023-04-27T07:34:58.425Z,185.62
2023-04-27T07:35:58.387Z,185.62
2023-04-27T07:36:58.338Z,174.38
2023-04-27T07:37:58.352Z,140.62
2023-04-27T07:38:58.344Z,135.00
2023-04-27T07:39:58.301Z,129.38
2023-04-27T07:40:58.352Z,129.38
2023-04-27T07:41:58.347Z,135.00
2023-04-27T07:42:58.314Z,157.50
2023-04-27T07:43:58.247Z,191.25
2023-04-27T07:44:58.233Z,225.00
2023-04-27T07:45:58.337Z,241.88
2023-04-27T07:46:58.199Z,258.75
2023-04-27T07:48:01.251Z,264.38
2023-04-27T07:49:01.199Z,275.62
2023-04-27T07:49:58.216Z,264.38
2023-04-27T07:50:58.150Z,270.00
2023-04-27T07:51:58.179Z,303.75
2023-04-27T07:52:58.118Z,309.38
2023-04-27T07:53:58.107Z,253.12
2023-04-27T07:54:58.095Z,219.38
2023-04-27T07:55:58.143Z,213.75
2023-04-27T07:56:58.067Z,225.00
2023-04-27T07:57:58.064Z,230.62
2023-04-27T07:58:58.032Z,225.00
2023-04-27T07:59:58.018Z,219.38
2023-04-27T08:00:58.009Z,191.25
2023-04-27T08:02:14.933Z,185.62
2023-04-27T08:02:59.170Z,180.00
2023-04-27T08:03:58.271Z,180.00
2023-04-27T08:04:58.428Z,191.25
2023-04-27T08:05:58.289Z,191.25
2023-04-27T08:06:58.154Z,185.62
2023-04-27T08:08:01.056Z,180.00
2023-04-27T08:09:00.945Z,168.75
2023-04-27T08:09:57.883Z,168.75
2023-04-27T08:10:57.902Z,168.75
2023-04-27T08:11:57.852Z,163.12
2023-04-27T08:12:57.835Z,151.88
2023-04-27T08:13:57.834Z,140.62
2023-04-27T08:14:57.843Z,140.62
2023-04-27T08:15:57.798Z,146.25
2023-04-27T08:16:57.850Z,140.62
2023-04-27T08:17:57.811Z,157.50
2023-04-27T08:18:58.651Z,157.50
2023-04-27T08:19:57.759Z,163.12
2023-04-27T08:20:57.730Z,191.25
2023-04-27T08:21:57.719Z,213.75
2023-04-27T08:22:57.700Z,185.62
2023-04-27T08:23:57.693Z,191.25
2023-04-27T08:24:57.786Z,180.00
2023-04-27T08:25:57.671Z,163.12
2023-04-27T08:26:57.648Z,202.50
2023-04-27T08:28:00.645Z,213.75
2023-04-27T08:29:03.190Z,208.12
2023-04-27T08:29:58.634Z,191.25
2023-04-27T08:30:57.620Z,191.25
2023-04-27T08:31:57.779Z,236.25
2023-04-27T08:32:57.621Z,202.50
2023-04-27T08:33:57.546Z,236.25
2023-04-27T08:34:57.531Z,258.75
2023-04-27T08:35:57.594Z,247.50
2023-04-27T08:36:57.506Z,258.75
2023-04-27T08:37:57.485Z,219.38
2023-04-27T08:38:57.480Z,202.50
2023-04-27T08:39:57.468Z,213.75
2023-04-27T08:41:00.809Z,270.00
2023-04-27T08:41:58.495Z,292.50
2023-04-27T08:42:57.435Z,309.38
2023-04-27T08:43:59.113Z,320.62
2023-04-27T08:44:57.442Z,320.62
2023-04-27T08:45:57.414Z,286.88
2023-04-27T08:46:57.398Z,241.88
2023-04-27T08:48:00.432Z,236.25
2023-04-27T08:49:00.364Z,213.75
2023-04-27T08:49:57.355Z,191.25
2023-04-27T08:50:57.325Z,180.00
2023-04-27T08:51:57.303Z,163.12
2023-04-27T08:52:57.294Z,151.88
2023-04-27T08:53:57.355Z,140.62
2023-04-27T08:54:57.274Z,129.38
2023-04-27T08:55:57.253Z,123.75
2023-04-27T08:56:57.242Z,112.50
2023-04-27T08:57:57.249Z,106.88
2023-04-27T08:58:57.319Z,101.25
2023-04-27T08:59:57.254Z,95.62
2023-04-27T09:00:57.197Z,90.00
2023-04-27T09:01:57.243Z,90.00
2023-04-27T09:02:57.384Z,84.38
2023-04-27T09:03:57.377Z,84.38
2023-04-27T09:04:57.442Z,84.38
2023-04-27T09:06:05.186Z,84.38
2023-04-27T09:06:58.104Z,90.00
2023-04-27T09:08:00.144Z,90.00
2023-04-27T09:09:00.178Z,95.62
2023-04-27T09:09:57.108Z,101.25
2023-04-27T09:10:57.056Z,101.25
2023-04-27T09:11:57.093Z,101.25
2023-04-27T09:12:57.025Z,106.88
2023-04-27T09:13:57.024Z,106.88
2023-04-27T09:14:57.006Z,118.12
2023-04-27T09:15:57.018Z,123.75
2023-04-27T09:16:56.974Z,135.00
2023-04-27T09:17:57.095Z,146.25
2023-04-27T09:18:56.955Z,157.50
2023-04-27T09:19:56.919Z,168.75
2023-04-27T09:20:56.922Z,241.88
2023-04-27T09:21:56.944Z,208.12
2023-04-27T09:22:56.890Z,185.62
2023-04-27T09:23:56.925Z,185.62
2023-04-27T09:24:56.870Z,253.12
2023-04-27T09:25:56.926Z,219.38
2023-04-27T09:26:58.420Z,196.88
2023-04-27T09:27:59.818Z,168.75
2023-04-27T09:28:59.879Z,157.50
2023-04-27T09:29:56.801Z,151.88
2023-04-27T09:30:56.792Z,146.25
2023-04-27T09:31:56.858Z,140.62
2023-04-27T09:32:56.869Z,140.62
2023-04-27T09:33:56.743Z,135.00
2023-04-27T09:34:56.796Z,129.38
2023-04-27T09:35:56.710Z,123.75
2023-04-27T09:36:56.721Z,123.75
2023-04-27T09:37:56.696Z,123.75
2023-04-27T09:38:56.703Z,135.00
2023-04-27T09:39:56.670Z,146.25
2023-04-27T09:40:56.696Z,163.12
2023-04-27T09:41:56.641Z,168.75
2023-04-27T09:42:56.658Z,174.38
2023-04-27T09:43:57.842Z,174.38
2023-04-27T09:44:56.597Z,185.62
2023-04-27T09:45:56.602Z,185.62
2023-04-27T09:46:56.615Z,219.38
2023-04-27T09:47:59.605Z,191.25
2023-04-27T09:48:59.553Z,253.12
2023-04-27T09:49:56.570Z,253.12
2023-04-27T09:50:56.533Z,253.12
2023-04-27T09:51:56.498Z,247.50
2023-04-27T09:52:56.520Z,247.50
2023-04-27T09:53:56.487Z,241.88
2023-04-27T09:54:56.463Z,241.88
2023-04-27T09:55:56.440Z,241.88
2023-04-27T09:56:56.438Z,241.88
2023-04-27T09:57:56.502Z,247.50
2023-04-27T09:58:56.396Z,247.50
2023-04-27T09:59:56.385Z,253.12
2023-04-27T10:00:56.421Z,258.75
2023-04-27T10:01:56.359Z,264.38
2023-04-27T10:02:56.463Z,264.38
2023-04-27T10:03:56.513Z,270.00
2023-04-27T10:04:56.372Z,275.62
2023-04-27T10:05:56.294Z,286.88
2023-04-27T10:06:57.817Z,253.12
2023-04-27T10:07:59.282Z,230.62
2023-04-27T10:08:59.319Z,225.00
2023-04-27T10:09:56.243Z,298.12
2023-04-27T10:10:56.231Z,236.25
2023-04-27T10:11:56.237Z,258.75
2023-04-27T10:12:56.204Z,185.62
2023-04-27T10:13:56.188Z,180.00
2023-04-27T10:14:56.247Z,174.38
2023-04-27T10:15:56.165Z,174.38
2023-04-27T10:16:56.195Z,185.62
2023-04-27T10:17:56.167Z,180.00
2023-04-27T10:18:56.156Z,185.62
2023-04-27T10:19:58.222Z,196.88
2023-04-27T10:20:56.143Z,208.12
2023-04-27T10:21:56.079Z,225.00
2023-04-27T10:22:56.070Z,236.25
2023-04-27T10:23:56.047Z,258.75
2023-04-27T10:24:56.079Z,230.62
2023-04-27T10:25:56.020Z,225.00
2023-04-27T10:26:56.061Z,225.00
2023-04-27T10:27:58.998Z,225.00
2023-04-27T10:28:58.998Z,225.00
2023-04-27T10:29:56.002Z,230.62
2023-04-27T10:30:56.004Z,236.25
2023-04-27T10:31:55.941Z,241.88
2023-04-27T10:32:56.094Z,241.88
2023-04-27T10:33:55.950Z,241.88
2023-04-27T10:34:55.893Z,241.88
2023-04-27T10:35:55.920Z,241.88
2023-04-27T10:36:55.897Z,241.88
2023-04-27T10:37:55.851Z,247.50
2023-04-27T10:38:55.897Z,253.12
2023-04-27T10:39:55.831Z,236.25
2023-04-27T10:40:55.877Z,247.50
2023-04-27T10:41:55.817Z,258.75
2023-04-27T10:42:55.797Z,286.88
2023-04-27T10:43:55.773Z,331.88
2023-04-27T10:44:55.831Z,331.88
2023-04-27T10:45:55.834Z,270.00
2023-04-27T10:46:55.733Z,298.12
2023-04-27T10:47:58.730Z,337.50
2023-04-27T10:48:58.703Z,247.50
2023-04-27T10:49:55.683Z,247.50
2023-04-27T10:50:55.725Z,230.62
2023-04-27T10:51:55.656Z,286.88
2023-04-27T10:52:55.649Z,208.12
2023-04-27T10:53:55.632Z,208.12
2023-04-27T10:54:55.631Z,253.12
2023-04-27T10:55:55.653Z,202.50
2023-04-27T10:56:55.593Z,225.00
2023-04-27T10:57:55.586Z,241.88
2023-04-27T10:58:55.566Z,236.25
2023-04-27T10:59:55.622Z,236.25
2023-04-27T11:00:55.529Z,241.88
2023-04-27T11:01:55.602Z,241.88
2023-04-27T11:02:55.562Z,253.12
2023-04-27T11:03:55.625Z,309.38
2023-04-27T11:04:55.570Z,303.75
2023-04-27T11:05:57.656Z,258.75
2023-04-27T11:06:55.464Z,258.75
2023-04-27T11:07:58.500Z,309.38
2023-04-27T11:08:58.428Z,253.12
2023-04-27T11:09:55.420Z,264.38
2023-04-27T11:10:55.426Z,219.38
2023-04-27T11:11:55.384Z,225.00
2023-04-27T11:12:55.376Z,241.88
2023-04-27T11:13:55.417Z,270.00
2023-04-27T11:14:55.340Z,270.00
2023-04-27T11:15:55.373Z,270.00
2023-04-27T11:16:55.347Z,275.62
2023-04-27T11:17:55.395Z,241.88
2023-04-27T11:18:55.294Z,236.25
2023-04-27T11:19:55.335Z,236.25
2023-04-27T11:20:55.288Z,236.25
2023-04-27T11:21:55.239Z,236.25
2023-04-27T11:22:55.231Z,241.88
2023-04-27T11:23:55.220Z,241.88
2023-04-27T11:24:55.202Z,241.88
2023-04-27T11:25:55.309Z,247.50
2023-04-27T11:26:55.180Z,247.50
2023-04-27T11:27:58.155Z,253.12
2023-04-27T11:28:58.165Z,253.12
2023-04-27T11:29:55.131Z,253.12
2023-04-27T11:30:55.126Z,258.75
2023-04-27T11:31:55.216Z,281.25
2023-04-27T11:32:55.149Z,270.00
2023-04-27T11:33:56.105Z,270.00
2023-04-27T11:34:56.628Z,275.62
2023-04-27T11:35:55.062Z,281.25
2023-04-27T11:36:58.755Z,258.75
2023-04-27T11:37:56.060Z,230.62
2023-04-27T11:38:55.049Z,219.38
2023-04-27T11:39:55.012Z,202.50
2023-04-27T11:40:54.981Z,191.25
2023-04-27T11:41:54.966Z,180.00
2023-04-27T11:42:55.033Z,163.12
2023-04-27T11:43:54.953Z,151.88
2023-04-27T11:44:54.944Z,146.25
2023-04-27T11:45:54.931Z,146.25
2023-04-27T11:46:54.954Z,146.25
2023-04-27T11:47:57.958Z,146.25
2023-04-27T11:48:57.890Z,146.25
2023-04-27T11:49:54.853Z,140.62
2023-04-27T11:50:54.854Z,135.00
2023-04-27T11:51:54.835Z,135.00
2023-04-27T11:52:54.819Z,135.00
2023-04-27T11:53:54.859Z,140.62
2023-04-27T11:54:54.794Z,140.62
2023-04-27T11:55:54.785Z,140.62
2023-04-27T11:56:54.758Z,151.88
2023-04-27T11:57:54.751Z,151.88
2023-04-27T11:58:54.734Z,157.50
2023-04-27T11:59:54.764Z,168.75
2023-04-27T12:00:54.746Z,168.75
2023-04-27T12:01:54.702Z,174.38
2023-04-27T12:02:54.881Z,168.75
2023-04-27T12:03:54.880Z,174.38
2023-04-27T12:04:54.966Z,191.25
2023-04-27T12:05:54.967Z,196.88
2023-04-27T12:06:54.624Z,202.50
2023-04-27T12:07:57.602Z,208.12
2023-04-27T12:08:57.588Z,208.12
2023-04-27T12:09:54.578Z,208.12
2023-04-27T12:10:54.577Z,208.12
2023-04-27T12:11:54.627Z,202.50
2023-04-27T12:12:54.548Z,191.25
2023-04-27T12:13:54.527Z,185.62
2023-04-27T12:14:54.543Z,180.00
2023-04-27T12:15:55.786Z,174.38
2023-04-27T12:16:54.521Z,174.38
2023-04-27T12:17:54.548Z,168.75
2023-04-27T12:18:54.490Z,157.50
2023-04-27T12:19:54.443Z,146.25
2023-04-27T12:20:54.442Z,140.62
2023-04-27T12:21:54.440Z,140.62
2023-04-27T12:22:54.402Z,140.62
2023-04-27T12:23:54.442Z,146.25
2023-04-27T12:24:54.373Z,140.62
2023-04-27T12:25:54.380Z,140.62
2023-04-27T12:26:54.350Z,140.62
2023-04-27T12:27:57.368Z,129.38
2023-04-27T12:28:57.357Z,123.75
2023-04-27T12:29:54.321Z,123.75
2023-04-27T12:30:54.357Z,118.12
2023-04-27T12:31:54.289Z,118.12
2023-04-27T12:32:54.496Z,123.75
2023-04-27T12:33:54.277Z,123.75
2023-04-27T12:34:54.233Z,123.75
2023-04-27T12:35:54.238Z,129.38
2023-04-27T12:36:54.211Z,129.38
2023-04-27T12:37:54.198Z,129.38
2023-04-27T12:38:54.249Z,129.38
2023-04-27T12:39:54.191Z,129.38
2023-04-27T12:40:54.153Z,135.00
2023-04-27T12:41:54.164Z,135.00
2023-04-27T12:42:54.133Z,135.00
2023-04-27T12:43:54.123Z,135.00
2023-04-27T12:44:54.144Z,140.62
2023-04-27T12:45:54.136Z,140.62